CheckWX is a tool to help pilots better visualize weather data.  It is not intended as a substitute for an official pre-flight weather briefing.

23:41:02 UTC

KJBR TAF
Jonesboro Municipal Airport
Jonesboro, Arkansas, USA
KJBR 182320Z 1900/1924 11004KT P6SM SKC FM191700 18006KT P6SM FEW050 SCT150

Oct-19@
00:00 UTC

Oct-19 @ 00:00 UTC

Oct-19@
17:00 UTC

Oct-19 @ 17:00 UTC

KJBR 182320Z 1900/1924 11004KT P6SM SKC
Wind
  • 110° at 4 KTS
Cloud Levels
  • Clear skies

Oct-19@
17:00 UTC

Oct-19 @ 17:00 UTC

Oct-20@
00:00 UTC

Oct-20 @ 00:00 UTC

FM191700 18006KT P6SM FEW050 SCT150

From

From Standard forecast or significant change

Wind
  • 180° at 6 KTS
Cloud Levels
  • Few at 5,000' AGL
  • Scattered at 15,000' AGL